Nimitz, West Virginia
Current Conditions -  °F | °C
As of 7:51 PM on Sunday 23 Nov 2014 (Local Time) from KBKW Reporting Station
Light Rain Light Rain  
Wind Chill: 52°   Ceiling: 9000
Heat Index: 52°   Visibility: 8mi
Dew Point: 48°   Wind: 23mph
Humidity: 86%   Direction: 140°SE
Pressure: 29.73"   Gusts: 38mph
Location:  37.65°N, 80.96°W
Report Text: KBKW 240051Z AUTO 14020G33KT 8SM -RA FEW013 SCT031 OVC090 11/09 A2973 RMK AO2 PK WND 14038/0032 SLP067 P0007 T01110089
Loading
Personal Weather Stations






























Interactive Weather Map New forecast layout! Learn more

10-Day Weather Forecast

Advertisements
Track Severe Weather on mobile